Time;durP1;ratioP1;P1;durP2;ratioP2;P2;SDS_P1;SDS_P2;PMS_P1;PMS_P2;Temp;Humidity;BMP_temperature;BMP_pressure;BME280_temperature;BME280_humidity;BME280_pressure;Samples;Min_cycle;Max_cycle;Signal;HPM_P1;HPM_P2
2022/03/24 00:02:17;;;;;;;57.63;35.38;;;;;;;7.78;60.73;102864.66;5037433;28;20404;-59
2022/03/24 00:04:43;;;;;;;62.00;35.65;;;;;;;7.75;60.56;102856.75;5037566;28;20424;-59
2022/03/24 00:07:08;;;;;;;57.35;35.33;;;;;;;7.82;60.13;102862.16;5037371;28;20029;-58
2022/03/24 00:09:33;;;;;;;58.92;34.95;;;;;;;7.68;58.42;102864.38;5037224;28;20026;-58
2022/03/24 00:11:59;;;;;;;57.20;33.67;;;;;;;7.41;59.31;102866.13;5037386;28;20044;-58
2022/03/24 00:14:25;;;;;;;58.05;36.38;;;;;;;7.34;60.23;102845.91;5036778;28;20026;-58
2022/03/24 00:16:50;;;;;;;58.00;35.65;;;;;;;7.31;59.31;102853.63;5037249;28;20056;-59
2022/03/24 00:19:19;;;;;;;55.75;33.65;;;;;;;7.15;59.51;102862.66;5036686;28;20566;-58
2022/03/24 00:21:45;;;;;;;57.97;33.08;;;;;;;7.09;60.19;102870.28;5037241;28;20060;-58
2022/03/24 00:24:11;;;;;;;58.33;34.38;;;;;;;7.07;60.63;102860.66;5036925;28;20159;-58
2022/03/24 00:26:37;;;;;;;58.33;35.25;;;;;;;7.12;61.01;102854.75;5036973;28;20120;-58
2022/03/24 00:29:03;;;;;;;55.53;33.67;;;;;;;7.18;60.20;102851.47;5036770;28;20037;-58
2022/03/24 00:31:29;;;;;;;57.85;34.83;;;;;;;7.10;61.04;102856.41;5036768;28;20034;-59
2022/03/24 00:33:55;;;;;;;55.53;34.28;;;;;;;7.08;60.55;102857.22;5036630;28;20048;-58
2022/03/24 00:36:21;;;;;;;60.28;35.30;;;;;;;7.14;60.37;102855.69;5036755;28;20551;-58
2022/03/24 00:38:46;;;;;;;58.10;34.45;;;;;;;7.08;60.93;102849.41;5037308;28;20049;-58
2022/03/24 00:41:12;;;;;;;56.10;35.10;;;;;;;7.11;61.82;102847.75;5036952;28;20033;-58
2022/03/24 00:43:39;;;;;;;57.72;34.60;;;;;;;7.12;60.77;102852.13;5036712;28;20025;-58
2022/03/24 00:46:05;;;;;;;54.10;34.47;;;;;;;7.16;60.95;102845.31;5036514;28;20030;-59
2022/03/24 00:48:31;;;;;;;56.95;33.83;;;;;;;7.11;61.43;102850.38;5036520;28;20026;-58
2022/03/24 00:50:56;;;;;;;56.47;33.45;;;;;;;7.15;61.58;102838.34;5036818;28;20048;-58
2022/03/24 00:53:23;;;;;;;59.97;35.45;;;;;;;7.07;61.64;102845.03;5036495;28;20408;-58
2022/03/24 00:55:48;;;;;;;58.83;34.63;;;;;;;7.07;61.95;102840.72;5036519;28;20034;-58
2022/03/24 00:58:13;;;;;;;56.60;34.35;;;;;;;7.04;61.74;102843.22;5036614;28;20068;-58
2022/03/24 01:00:40;;;;;;;61.58;35.78;;;;;;;7.02;62.62;102847.47;5036356;28;20025;-58
2022/03/24 01:03:06;;;;;;;56.83;34.55;;;;;;;6.97;62.09;102846.44;5036224;28;20029;-58
2022/03/24 01:05:37;;;;;;;60.42;35.97;;;;;;;7.00;63.00;102843.94;5036096;28;20059;-58
2022/03/24 01:08:08;;;;;;;57.95;34.67;;;;;;;6.96;62.86;102834.25;5036206;28;20037;-58
2022/03/24 01:10:34;;;;;;;58.17;34.83;;;;;;;6.94;63.09;102838.50;5035907;28;20360;-58
2022/03/24 01:13:00;;;;;;;54.30;33.92;;;;;;;6.91;62.07;102835.84;5036097;28;20056;-58
2022/03/24 01:15:27;;;;;;;58.30;33.95;;;;;;;6.93;62.65;102834.13;5036009;28;20033;-59
2022/03/24 01:17:53;;;;;;;55.45;35.05;;;;;;;6.88;62.11;102833.13;5035896;28;20037;-58
2022/03/24 01:20:19;;;;;;;55.28;34.25;;;;;;;6.84;63.00;102820.84;5036169;28;20136;-58
2022/03/24 01:22:45;;;;;;;56.00;34.17;;;;;;;6.84;63.49;102839.06;5035651;28;20428;-58
2022/03/24 01:25:11;;;;;;;55.08;33.42;;;;;;;6.79;63.57;102832.78;5036396;28;20072;-58
2022/03/24 01:27:38;;;;;;;58.10;35.10;;;;;;;6.85;62.87;102840.81;5035154;28;20033;-58
2022/03/24 01:30:05;;;;;;;58.45;34.90;;;;;;;6.71;64.17;102827.34;5035555;28;20112;-58
2022/03/24 01:32:30;;;;;;;58.05;35.30;;;;;;;6.67;64.11;102825.47;5035877;28;20091;-58
2022/03/24 01:34:56;;;;;;;58.85;35.20;;;;;;;6.74;64.31;102823.97;5035844;28;20116;-58
2022/03/24 01:37:23;;;;;;;53.08;33.65;;;;;;;6.74;64.45;102821.38;5035421;28;20025;-58
2022/03/24 01:39:49;;;;;;;59.17;35.25;;;;;;;6.77;64.29;102824.06;5035828;28;20033;-58
2022/03/24 01:42:16;;;;;;;58.70;35.33;;;;;;;6.72;64.34;102820.44;5035576;28;20429;-58
2022/03/24 01:44:42;;;;;;;56.85;34.13;;;;;;;6.61;64.77;102823.53;5039772;28;20075;-58
2022/03/24 01:47:09;;;;;;;55.53;35.10;;;;;;;6.58;65.12;102823.41;5035322;28;20100;-58
2022/03/24 01:49:37;;;;;;;57.38;34.45;;;;;;;6.56;65.14;102822.50;5035571;28;20037;-58
2022/03/24 01:52:05;;;;;;;59.60;35.38;;;;;;;6.52;65.44;102820.63;5035541;28;20117;-58
2022/03/24 01:54:32;;;;;;;58.70;35.33;;;;;;;6.42;66.40;102813.31;5035568;28;20029;-58
2022/03/24 01:56:59;;;;;;;57.08;34.50;;;;;;;6.32;65.98;102812.94;5035224;28;20041;-59
2022/03/24 01:59:24;;;;;;;60.83;35.33;;;;;;;6.34;66.24;102806.97;5035443;28;20040;-58
2022/03/24 02:01:50;;;;;;;57.90;34.53;;;;;;;6.36;65.72;102807.03;5035298;28;20034;-58
2022/03/24 02:04:17;;;;;;;59.15;35.50;;;;;;;6.36;65.99;102807.91;5035145;28;20044;-59
2022/03/24 02:06:42;;;;;;;61.50;35.95;;;;;;;6.34;66.58;102804.38;5035311;28;20435;-59
2022/03/24 02:09:08;;;;;;;57.58;34.22;;;;;;;6.31;66.72;102804.25;5034985;28;20048;-59
2022/03/24 02:11:34;;;;;;;60.15;34.75;;;;;;;6.27;66.45;102805.88;5035265;28;20033;-59
2022/03/24 02:14:01;;;;;;;58.38;34.20;;;;;;;6.28;66.83;102804.16;5034928;28;20048;-58
2022/03/24 02:16:34;;;;;;;59.80;34.65;;;;;;;6.27;66.78;102813.66;5035037;28;20100;-60
2022/03/24 02:19:10;;;;;;;58.60;35.45;;;;;;;6.25;66.60;102809.22;5035233;28;20037;-59
2022/03/24 02:21:36;;;;;;;57.60;35.50;;;;;;;6.18;67.17;102804.66;5034653;28;20034;-58
2022/03/24 02:24:02;;;;;;;59.03;36.10;;;;;;;6.17;67.26;102806.38;5034777;28;20425;-59
2022/03/24 02:26:27;;;;;;;60.80;34.97;;;;;;;6.19;67.48;102796.91;5039837;28;20061;-58
2022/03/24 02:28:55;;;;;;;60.70;35.55;;;;;;;6.11;66.08;102800.94;5035137;28;20104;-58
2022/03/24 02:31:21;;;;;;;54.25;34.33;;;;;;;6.03;68.23;102804.13;5034679;28;20037;-58
2022/03/24 02:33:46;;;;;;;60.92;35.20;;;;;;;6.05;67.72;102805.94;5034432;28;20129;-58
2022/03/24 02:36:12;;;;;;;54.60;34.40;;;;;;;6.09;67.57;102796.53;5066940;28;20048;-58
2022/03/24 02:38:37;;;;;;;59.20;34.45;;;;;;;5.93;67.90;102801.16;5037336;28;20325;-58
2022/03/24 02:41:03;;;;;;;60.58;35.83;;;;;;;5.88;68.53;102804.41;5038938;28;20033;-58
2022/03/24 02:43:28;;;;;;;60.13;34.53;;;;;;;5.97;68.35;102801.28;5038906;28;20033;-58
2022/03/24 02:45:54;;;;;;;62.65;35.28;;;;;;;5.96;68.13;102808.19;5038621;28;20095;-58
2022/03/24 02:48:21;;;;;;;59.72;36.33;;;;;;;5.89;67.92;102803.56;5038813;28;20033;-58
2022/03/24 02:50:47;;;;;;;61.42;35.97;;;;;;;5.85;68.59;102804.28;5038962;28;20029;-58
2022/03/24 02:53:12;;;;;;;62.83;37.00;;;;;;;5.81;68.84;102802.41;5038740;28;20033;-59
2022/03/24 02:55:37;;;;;;;59.80;34.97;;;;;;;5.83;69.14;102793.84;5038672;28;20093;-58
2022/03/24 02:58:02;;;;;;;58.45;35.58;;;;;;;5.83;68.95;102795.53;5038489;28;20029;-58
2022/03/24 03:00:28;;;;;;;61.03;36.15;;;;;;;5.81;68.77;102795.50;5038547;28;20503;-58
2022/03/24 03:02:53;;;;;;;61.35;35.95;;;;;;;5.80;69.56;102798.91;5038539;28;20033;-58
2022/03/24 03:05:19;;;;;;;57.03;35.15;;;;;;;5.73;68.75;102802.09;5038563;28;20029;-58
2022/03/24 03:07:44;;;;;;;62.90;35.75;;;;;;;5.68;69.80;102798.47;5038516;28;20040;-58
2022/03/24 03:10:11;;;;;;;62.92;35.47;;;;;;;5.67;68.88;102806.19;5038235;28;20072;-58
2022/03/24 03:12:37;;;;;;;60.00;35.80;;;;;;;5.59;69.70;102804.16;5037851;28;20441;-58
2022/03/24 03:15:03;;;;;;;60.08;35.35;;;;;;;5.58;69.72;102801.50;5038364;28;20037;-58
2022/03/24 03:17:28;;;;;;;63.22;37.55;;;;;;;5.53;70.27;102800.47;5038161;28;20463;-58
2022/03/24 03:19:54;;;;;;;65.60;35.20;;;;;;;5.49;70.09;102795.97;5038306;28;20140;-58
2022/03/24 03:22:19;;;;;;;60.33;36.42;;;;;;;5.53;69.86;102801.38;5038266;28;20053;-58
2022/03/24 03:24:45;;;;;;;63.10;37.47;;;;;;;5.49;70.57;102802.06;5037939;28;20040;-58
2022/03/24 03:27:12;;;;;;;61.28;35.70;;;;;;;5.51;70.02;102796.94;5037955;28;20044;-58
2022/03/24 03:29:37;;;;;;;60.10;35.45;;;;;;;5.52;70.51;102796.09;5037905;28;20145;-58
2022/03/24 03:32:03;;;;;;;58.70;35.65;;;;;;;5.55;70.15;102801.38;5038269;28;20061;-58
2022/03/24 03:34:28;;;;;;;63.72;36.40;;;;;;;5.46;70.43;102799.34;5038118;28;20463;-58
2022/03/24 03:36:55;;;;;;;63.33;35.80;;;;;;;5.51;70.72;102799.53;5038053;28;20041;-58
2022/03/24 03:39:22;;;;;;;61.55;35.65;;;;;;;5.39;70.28;102791.25;5037831;28;20091;-58
2022/03/24 03:41:47;;;;;;;60.17;36.22;;;;;;;5.31;70.46;102790.97;5037613;28;20112;-58
2022/03/24 03:44:12;;;;;;;59.58;35.42;;;;;;;5.31;70.42;102805.66;5037545;28;20120;-58
2022/03/24 03:46:38;;;;;;;63.28;36.10;;;;;;;5.29;70.88;102804.69;5037856;28;20095;-58
2022/03/24 03:49:07;;;;;;;59.85;34.70;;;;;;;5.19;71.67;102799.16;5037138;28;20045;-58
2022/03/24 03:51:33;;;;;;;60.00;35.70;;;;;;;5.08;71.22;102784.84;5037970;28;20091;-60
2022/03/24 03:53:58;;;;;;;66.60;36.92;;;;;;;5.05;71.50;102799.41;5037592;28;20412;-58
2022/03/24 03:56:23;;;;;;;60.40;36.00;;;;;;;5.05;72.35;102802.88;5037285;28;20037;-58
2022/03/24 03:58:49;;;;;;;63.85;36.92;;;;;;;5.03;72.04;102807.13;5037717;28;20099;-58
2022/03/24 04:01:14;;;;;;;62.45;36.10;;;;;;;5.04;72.07;102795.03;5037798;28;20053;-58
2022/03/24 04:03:40;;;;;;;62.17;36.45;;;;;;;5.05;72.40;102804.59;5037413;28;20022;-58
2022/03/24 04:06:09;;;;;;;61.15;36.30;;;;;;;5.02;71.98;102807.94;5037619;28;20091;-59
2022/03/24 04:08:35;;;;;;;63.55;35.70;;;;;;;5.12;72.16;102804.91;5037317;28;20084;-58
2022/03/24 04:11:01;;;;;;;62.80;35.88;;;;;;;5.17;72.37;102803.41;5036295;28;20364;-58
2022/03/24 04:13:27;;;;;;;62.78;36.53;;;;;;;5.16;71.54;102804.22;5037267;28;20029;-59
2022/03/24 04:15:53;;;;;;;62.03;35.63;;;;;;;5.16;71.97;102801.63;5037226;28;20372;-58
2022/03/24 04:18:18;;;;;;;64.55;36.83;;;;;;;5.13;71.25;102803.19;5037396;28;20030;-58
2022/03/24 04:20:44;;;;;;;65.00;35.83;;;;;;;5.08;71.96;102807.31;5037375;28;20049;-58
2022/03/24 04:23:11;;;;;;;59.90;35.60;;;;;;;5.04;72.22;102797.63;5036891;28;20029;-58
2022/03/24 04:25:37;;;;;;;60.53;35.35;;;;;;;5.00;72.21;102801.84;5037262;28;20037;-58
2022/03/24 04:28:04;;;;;;;61.70;35.28;;;;;;;4.92;72.94;102799.72;5037026;28;20484;-58
2022/03/24 04:30:30;;;;;;;62.10;36.75;;;;;;;4.89;73.58;102796.19;5037356;28;20041;-58
2022/03/24 04:32:56;;;;;;;58.17;36.45;;;;;;;4.85;73.35;102801.19;5037094;28;20033;-58
2022/03/24 04:35:21;;;;;;;64.22;35.95;;;;;;;4.75;72.95;102807.72;5037010;28;20032;-58
2022/03/24 04:37:49;;;;;;;62.75;36.72;;;;;;;4.60;73.81;102806.19;5036765;28;20321;-58
2022/03/24 04:40:16;;;;;;;63.88;37.60;;;;;;;4.55;74.25;102805.97;5036705;28;20040;-58
2022/03/24 04:42:42;;;;;;;64.47;39.03;;;;;;;4.54;74.01;102801.59;5036678;28;20037;-58
2022/03/24 04:45:09;;;;;;;65.75;37.75;;;;;;;4.51;74.32;102804.94;5036699;28;20355;-58
2022/03/24 04:47:34;;;;;;;64.75;37.97;;;;;;;4.56;74.10;102799.97;5036639;28;20448;-58
2022/03/24 04:50:00;;;;;;;64.10;37.78;;;;;;;4.48;74.10;102798.78;5036741;28;20085;-58
2022/03/24 04:52:25;;;;;;;69.47;38.45;;;;;;;4.52;73.74;102804.13;5036446;28;20041;-58
2022/03/24 04:54:51;;;;;;;68.80;38.13;;;;;;;4.45;73.20;102802.13;5036625;28;20069;-58
2022/03/24 04:57:16;;;;;;;66.22;37.80;;;;;;;4.42;73.68;102803.69;5036385;28;20056;-58
2022/03/24 04:59:42;;;;;;;63.13;37.63;;;;;;;4.46;74.18;102809.06;5036464;28;20041;-58
2022/03/24 05:02:12;;;;;;;64.93;37.42;;;;;;;4.48;73.84;102812.63;5036337;28;20045;-58
2022/03/24 05:04:37;;;;;;;65.55;37.47;;;;;;;4.49;73.46;102805.72;5036378;28;20389;-58
2022/03/24 05:07:03;;;;;;;64.53;35.50;;;;;;;4.49;73.82;102804.03;5036281;28;20160;-58
2022/03/24 05:09:29;;;;;;;67.68;37.90;;;;;;;4.50;73.73;102812.69;5036286;28;20025;-58
2022/03/24 05:11:54;;;;;;;68.47;36.90;;;;;;;4.45;73.38;102799.53;5036147;28;20052;-58
2022/03/24 05:14:19;;;;;;;67.05;38.38;;;;;;;4.43;73.84;102811.53;5036278;28;20099;-58
2022/03/24 05:16:46;;;;;;;64.63;37.30;;;;;;;4.36;73.33;102800.81;5036050;28;20056;-58
2022/03/24 05:19:12;;;;;;;62.92;38.22;;;;;;;4.42;74.40;102817.53;5036435;28;20041;-58
2022/03/24 05:21:37;;;;;;;65.40;37.90;;;;;;;4.42;74.11;102817.53;5036197;28;20045;-58
2022/03/24 05:24:03;;;;;;;64.28;37.30;;;;;;;4.40;74.23;102811.38;5035679;28;20106;-58
2022/03/24 05:26:28;;;;;;;65.07;37.03;;;;;;;4.39;73.34;102812.22;5035978;28;20037;-58
2022/03/24 05:28:53;;;;;;;67.00;38.22;;;;;;;4.39;73.77;102819.09;5035660;28;20082;-58
2022/03/24 05:31:20;;;;;;;65.18;38.65;;;;;;;4.33;73.92;102817.13;5034742;28;20037;-58
2022/03/24 05:33:46;;;;;;;65.57;38.50;;;;;;;4.34;74.06;102824.06;5035824;28;20175;-59
2022/03/24 05:36:11;;;;;;;63.70;35.92;;;;;;;4.31;73.90;102818.78;5036014;28;20095;-58
2022/03/24 05:38:38;;;;;;;66.95;37.78;;;;;;;4.33;73.61;102830.06;5035566;28;20091;-58
2022/03/24 05:41:04;;;;;;;64.10;35.83;;;;;;;4.34;74.16;102825.78;5035435;28;20039;-58
2022/03/24 05:43:30;;;;;;;67.93;36.75;;;;;;;4.35;74.03;102820.66;5035532;28;20036;-58
2022/03/24 05:45:56;;;;;;;64.90;37.95;;;;;;;4.39;73.21;102825.16;5035709;28;20052;-58
2022/03/24 05:48:21;;;;;;;61.08;36.58;;;;;;;4.36;73.84;102827.63;5035455;28;20033;-58
2022/03/24 05:50:46;;;;;;;65.68;38.50;;;;;;;4.43;74.13;102827.09;5035341;28;20029;-58
2022/03/24 05:53:12;;;;;;;65.55;38.05;;;;;;;4.46;73.78;102835.00;5035435;28;20500;-58
2022/03/24 05:55:38;;;;;;;63.28;36.92;;;;;;;4.48;74.63;102832.47;5050663;28;20033;-58
2022/03/24 05:58:04;;;;;;;69.35;38.70;;;;;;;4.45;74.06;102825.44;5055263;28;20454;-58
2022/03/24 06:00:31;;;;;;;68.07;38.53;;;;;;;4.45;73.83;102828.03;5052360;28;20041;-58
2022/03/24 06:02:56;;;;;;;63.95;37.50;;;;;;;4.45;74.44;102833.22;5044672;28;20035;-58
2022/03/24 06:05:25;;;;;;;68.20;38.03;;;;;;;4.45;73.51;102827.16;5034640;28;20021;-59
2022/03/24 06:07:51;;;;;;;62.40;37.17;;;;;;;4.52;74.61;102835.25;5038650;28;20040;-61
2022/03/24 06:10:16;;;;;;;64.57;35.42;;;;;;;4.62;74.46;102838.25;5055140;28;20044;-58
2022/03/24 06:12:42;;;;;;;63.35;36.42;;;;;;;4.62;74.23;102825.28;5054555;28;20426;-59
2022/03/24 06:15:08;;;;;;;66.57;38.40;;;;;;;4.67;74.37;102845.41;5035882;28;20029;-58
2022/03/24 06:17:34;;;;;;;64.15;38.55;;;;;;;4.71;74.38;102839.50;5037634;28;20337;-58
2022/03/24 06:20:01;;;;;;;66.90;37.00;;;;;;;4.76;74.39;102842.31;5034753;28;20153;-58
2022/03/24 06:22:27;;;;;;;67.43;36.55;;;;;;;4.80;74.63;102841.63;5035058;28;20030;-58
2022/03/24 06:24:52;;;;;;;67.80;36.88;;;;;;;4.85;75.19;102846.16;5034741;28;20447;-58
2022/03/24 06:27:17;;;;;;;64.43;38.17;;;;;;;5.10;74.29;102842.88;5034725;28;20099;-58
2022/03/24 06:29:43;;;;;;;68.07;37.72;;;;;;;5.73;72.64;102843.66;5034719;28;20026;-58
2022/03/24 06:32:08;;;;;;;64.28;35.63;;;;;;;6.44;69.62;102840.25;5034991;28;20456;-58
2022/03/24 06:34:34;;;;;;;61.80;37.10;;;;;;;6.81;68.18;102834.63;5034705;28;20036;-58
2022/03/24 06:37:00;;;;;;;62.58;34.95;;;;;;;7.12;67.92;102831.31;5034480;28;20089;-58
2022/03/24 06:39:25;;;;;;;63.50;36.75;;;;;;;7.56;66.35;102834.44;5034881;28;20037;-58
2022/03/24 06:41:51;;;;;;;63.60;37.10;;;;;;;7.86;64.22;102824.94;5034875;28;20436;-58
2022/03/24 06:44:16;;;;;;;59.40;35.60;;;;;;;8.07;63.89;102835.13;5034661;28;20037;-58
2022/03/24 06:46:41;;;;;;;57.78;35.60;;;;;;;8.24;63.16;102833.00;5035050;28;20069;-58
2022/03/24 06:49:07;;;;;;;61.60;36.28;;;;;;;8.25;62.59;102830.44;5034293;28;20398;-58
2022/03/24 06:51:33;;;;;;;61.38;36.92;;;;;;;8.31;62.81;102840.16;5034184;28;20053;-58
2022/03/24 06:53:59;;;;;;;59.50;38.40;;;;;;;8.37;62.32;102835.13;5034472;28;20033;-58
2022/03/24 06:56:24;;;;;;;65.25;38.53;;;;;;;8.48;62.25;102830.22;5034778;28;20049;-58
2022/03/24 06:58:50;;;;;;;61.13;36.65;;;;;;;8.49;63.29;102831.94;5034490;28;20071;-58
2022/03/24 07:01:17;;;;;;;65.55;37.80;;;;;;;8.62;63.21;102837.56;5034527;28;20060;-58
2022/03/24 07:03:42;;;;;;;64.38;38.63;;;;;;;8.58;62.32;102837.44;5034317;28;20076;-59
2022/03/24 07:06:08;;;;;;;62.47;39.35;;;;;;;8.67;61.98;102835.06;5034518;28;20029;-58
2022/03/24 07:08:33;;;;;;;64.75;38.90;;;;;;;8.85;63.03;102837.25;5034612;28;20030;-58
2022/03/24 07:10:58;;;;;;;64.97;38.67;;;;;;;8.98;63.23;102831.53;5047678;28;20040;-58
2022/03/24 07:13:23;;;;;;;64.25;38.15;;;;;;;9.17;61.51;102833.75;5054126;28;20424;-57
2022/03/24 07:15:49;;;;;;;64.32;39.40;;;;;;;9.35;61.95;102834.16;5054221;28;20475;-57
2022/03/24 07:18:15;;;;;;;66.07;39.67;;;;;;;9.53;59.97;102841.53;5053943;28;20033;-58
2022/03/24 07:20:41;;;;;;;63.90;38.97;;;;;;;9.65;58.00;102839.22;5054010;28;20432;-58
2022/03/24 07:23:08;;;;;;;63.65;38.97;;;;;;;9.74;57.20;102843.75;5054082;28;20041;-58
2022/03/24 07:25:36;;;;;;;60.55;38.28;;;;;;;9.86;56.57;102840.53;5056189;28;20029;-58
2022/03/24 07:28:02;;;;;;;60.35;38.72;;;;;;;10.05;56.31;102846.16;5057866;28;20033;-58
2022/03/24 07:30:27;;;;;;;59.10;36.83;;;;;;;10.18;55.35;102847.31;5058080;28;20025;-58
2022/03/24 07:32:58;;;;;;;64.35;37.58;;;;;;;10.33;55.52;102841.53;5057813;28;20461;-58
2022/03/24 07:35:26;;;;;;;61.95;37.38;;;;;;;10.48;55.64;102836.59;5054188;28;20052;-58
2022/03/24 07:37:53;;;;;;;59.65;36.58;;;;;;;10.67;54.05;102840.44;5057367;28;20451;-58
2022/03/24 07:40:21;;;;;;;61.70;37.05;;;;;;;10.81;53.33;102839.81;5058021;28;20134;-58
2022/03/24 07:42:46;;;;;;;58.13;35.28;;;;;;;11.04;51.79;102834.13;5057685;28;20024;-58
2022/03/24 07:45:12;;;;;;;56.50;35.17;;;;;;;11.18;51.60;102834.31;5037069;28;20037;-58
2022/03/24 07:48:07;;;;;;;57.92;35.45;;;;;;;11.35;52.33;102838.09;5037462;28;20040;-58
2022/03/24 07:50:34;;;;;;;64.32;37.47;;;;;;;11.33;49.61;102832.81;5037387;28;20068;-58
2022/03/24 07:53:15;;;;;;;61.55;35.90;;;;;;;11.43;49.66;102839.06;5037867;28;20037;-58
2022/03/24 07:55:43;;;;;;;59.00;36.45;;;;;;;11.58;50.21;102843.69;5037596;28;20129;-58
2022/03/24 07:58:11;;;;;;;57.15;36.20;;;;;;;11.58;50.05;102844.56;5037426;28;20034;-57
2022/03/24 08:00:37;;;;;;;58.35;36.08;;;;;;;11.68;49.63;102846.44;5036246;28;20044;-57
2022/03/24 08:03:02;;;;;;;60.08;36.90;;;;;;;11.89;49.24;102845.91;5037289;28;20037;-57
2022/03/24 08:05:29;;;;;;;55.22;35.95;;;;;;;12.06;48.18;102844.38;5037571;28;20029;-57
2022/03/24 08:07:55;;;;;;;58.67;35.38;;;;;;;12.34;47.49;102844.69;5037450;28;20412;-58
2022/03/24 08:10:20;;;;;;;58.33;35.45;;;;;;;12.65;46.24;102838.00;5037398;28;20036;-58
2022/03/24 08:12:46;;;;;;;58.30;34.92;;;;;;;12.94;46.07;102846.19;5037587;28;20041;-58
2022/03/24 08:15:12;;;;;;;58.28;36.10;;;;;;;13.23;45.10;102834.19;5037167;28;20053;-58
2022/03/24 08:17:37;;;;;;;56.22;34.85;;;;;;;13.65;43.19;102846.75;5036969;28;20026;-58
2022/03/24 08:20:04;;;;;;;55.28;34.42;;;;;;;14.06;42.16;102848.69;5037204;28;20323;-58
2022/03/24 08:22:30;;;;;;;54.85;33.63;;;;;;;14.40;41.25;102847.97;5036934;28;20036;-58
2022/03/24 08:24:55;;;;;;;53.40;34.70;;;;;;;14.99;39.19;102834.03;5036780;28;20025;-59
2022/03/24 08:27:20;;;;;;;56.65;35.95;;;;;;;15.84;37.60;102839.19;5036671;28;20069;-59
2022/03/24 08:29:46;;;;;;;52.80;33.95;;;;;;;16.43;36.73;102824.84;5037098;28;20441;-59
2022/03/24 08:32:12;;;;;;;50.28;34.03;;;;;;;17.47;35.22;102843.44;5035790;28;20037;-59
2022/03/24 08:34:38;;;;;;;54.90;35.55;;;;;;;18.19;33.35;102847.91;5036890;28;20337;-58
2022/03/24 08:37:03;;;;;;;55.63;35.20;;;;;;;18.92;32.70;102834.47;5036473;28;20044;-58
2022/03/24 08:39:29;;;;;;;52.30;33.90;;;;;;;19.50;31.57;102832.63;5036971;28;20029;-58
2022/03/24 08:41:54;;;;;;;52.80;34.10;;;;;;;19.70;30.35;102833.13;5036446;28;20112;-58
2022/03/24 08:44:19;;;;;;;54.17;33.35;;;;;;;19.78;29.51;102834.69;5036673;28;20036;-58
2022/03/24 08:46:44;;;;;;;49.17;33.20;;;;;;;19.58;29.48;102843.94;5036547;28;20044;-58
2022/03/24 08:49:11;;;;;;;47.60;32.40;;;;;;;19.27;30.69;102843.63;5036530;28;20087;-58
2022/03/24 08:51:37;;;;;;;44.88;31.83;;;;;;;19.01;29.45;102834.34;5036344;28;20040;-58
2022/03/24 08:54:03;;;;;;;49.13;32.67;;;;;;;18.33;29.63;102844.19;5035456;28;20107;-58
2022/03/24 08:56:29;;;;;;;48.42;30.95;;;;;;;17.82;31.35;102845.72;5036317;28;20041;-58
2022/03/24 08:58:54;;;;;;;43.58;27.98;;;;;;;17.43;29.95;102841.69;5036279;28;20071;-58
2022/03/24 09:01:19;;;;;;;38.53;26.33;;;;;;;16.89;29.92;102843.06;5036041;28;20025;-58
2022/03/24 09:03:48;;;;;;;44.53;29.17;;;;;;;16.54;31.41;102851.19;5036442;28;20034;-58
2022/03/24 09:06:13;;;;;;;41.35;27.85;;;;;;;16.45;32.58;102848.63;5033725;28;20041;-55
2022/03/24 09:08:39;;;;;;;39.75;27.63;;;;;;;16.45;31.67;102851.25;5034285;28;20030;-56
2022/03/24 09:11:04;;;;;;;38.50;27.02;;;;;;;16.47;33.07;102854.75;5034908;28;20029;-54
2022/03/24 09:13:29;;;;;;;39.55;27.98;;;;;;;16.33;31.86;102849.53;5034737;28;20034;-59
2022/03/24 09:15:54;;;;;;;45.60;29.33;;;;;;;16.26;32.36;102859.28;5035388;28;20094;-58
2022/03/24 09:18:20;;;;;;;41.00;28.38;;;;;;;16.40;32.58;102850.41;5035844;28;20025;-57
2022/03/24 09:20:45;;;;;;;38.95;28.77;;;;;;;16.56;32.91;102855.59;5036008;28;20195;-57
2022/03/24 09:23:11;;;;;;;41.45;30.00;;;;;;;16.66;32.29;102861.72;5035919;28;20041;-54
2022/03/24 09:25:38;;;;;;;40.88;29.13;;;;;;;16.74;32.57;102866.97;5035779;28;20029;-57
2022/03/24 09:28:04;;;;;;;40.53;28.45;;;;;;;16.76;32.22;102862.56;5035460;28;20457;-57
2022/03/24 09:30:29;;;;;;;35.45;26.45;;;;;;;16.68;31.13;102863.47;5036100;28;20318;-57
2022/03/24 09:32:54;;;;;;;37.78;27.02;;;;;;;16.82;32.42;102858.06;5035942;28;20040;-57
2022/03/24 09:35:20;;;;;;;38.08;27.13;;;;;;;16.99;30.93;102858.84;5035275;28;20115;-57
2022/03/24 09:37:45;;;;;;;36.67;26.80;;;;;;;17.09;30.17;102861.41;5035760;28;20026;-59
2022/03/24 09:40:12;;;;;;;37.20;26.67;;;;;;;17.05;28.94;102858.78;5035452;28;20051;-59
2022/03/24 09:42:38;;;;;;;35.83;26.25;;;;;;;17.00;29.98;102868.53;5035627;28;20048;-56
2022/03/24 09:45:05;;;;;;;34.35;26.23;;;;;;;17.08;29.84;102855.25;5035061;28;20082;-55
2022/03/24 09:47:31;;;;;;;37.20;26.05;;;;;;;17.18;29.85;102856.91;5034930;28;20410;-56
2022/03/24 09:49:57;;;;;;;33.22;24.77;;;;;;;17.34;30.12;102861.16;5035283;28;20429;-56
2022/03/24 09:52:24;;;;;;;33.88;25.60;;;;;;;17.45;28.89;102861.09;5035611;28;20040;-57
2022/03/24 09:54:50;;;;;;;30.13;22.33;;;;;;;17.45;27.01;102854.91;5035295;28;20026;-57
2022/03/24 09:57:15;;;;;;;30.33;23.63;;;;;;;17.55;27.84;102859.22;5035200;28;20060;-55
2022/03/24 09:59:42;;;;;;;30.98;23.33;;;;;;;17.75;28.38;102859.91;5035502;28;20140;-56
2022/03/24 10:02:08;;;;;;;30.58;23.17;;;;;;;17.65;26.19;102855.63;5035406;28;20048;-57
2022/03/24 10:04:47;;;;;;;31.63;23.73;;;;;;;17.78;28.38;102859.00;5035083;28;20037;-58
2022/03/24 10:07:12;;;;;;;32.80;23.42;;;;;;;17.81;27.70;102859.88;5035265;28;20041;-58
2022/03/24 10:09:40;;;;;;;34.17;26.52;;;;;;;17.74;27.10;102863.47;5035217;28;20483;-56
2022/03/24 10:12:07;;;;;;;33.03;24.05;;;;;;;17.79;26.98;102863.41;5035069;28;20041;-58
2022/03/24 10:14:32;;;;;;;29.95;22.85;;;;;;;17.89;26.16;102860.63;5035156;28;20029;-57
2022/03/24 10:17:09;;;;;;;34.50;24.30;;;;;;;17.93;27.59;102856.19;5035007;28;20439;-59
2022/03/24 10:19:36;;;;;;;32.70;22.27;;;;;;;18.11;27.08;102857.72;5035023;28;20120;-58
2022/03/24 10:22:10;;;;;;;32.75;22.45;;;;;;;18.07;25.87;102856.88;5034691;28;20053;-59
2022/03/24 10:24:40;;;;;;;30.52;22.35;;;;;;;18.17;25.96;102853.25;5034867;28;20041;-58
2022/03/24 10:27:05;;;;;;;27.48;20.17;;;;;;;18.07;24.69;102846.28;5034442;28;20448;-58
2022/03/24 10:29:34;;;;;;;27.13;21.15;;;;;;;18.04;25.34;102849.84;5035275;28;20025;-58
2022/03/24 10:32:02;;;;;;;27.90;21.02;;;;;;;18.08;25.79;102845.41;5035003;28;20357;-59
2022/03/24 10:34:34;;;;;;;27.38;21.65;;;;;;;18.36;26.41;102836.16;5034913;28;20033;-58
2022/03/24 10:37:17;;;;;;;28.05;21.30;;;;;;;18.52;26.26;102820.94;5035095;28;20314;-57
2022/03/24 10:39:56;;;;;;;30.60;20.85;;;;;;;18.64;25.48;102839.34;5034719;28;20021;-58
2022/03/24 10:42:26;;;;;;;28.50;19.52;;;;;;;18.65;24.52;102840.22;5034611;28;20369;-59
2022/03/24 10:45:10;;;;;;;30.80;21.55;;;;;;;18.58;26.13;102841.16;5034583;28;20337;-60
2022/03/24 10:47:50;;;;;;;31.60;21.70;;;;;;;18.67;25.66;102825.16;5034959;28;20045;-57
2022/03/24 10:50:33;;;;;;;29.67;22.38;;;;;;;18.85;25.77;102824.88;5034549;28;20337;-62
2022/03/24 10:53:09;;;;;;;28.17;20.40;;;;;;;18.82;25.27;102829.34;5034740;28;20349;-58
2022/03/24 10:55:43;;;;;;;26.20;20.45;;;;;;;18.69;25.11;102831.34;5034617;28;20037;-58
2022/03/24 10:58:14;;;;;;;36.97;21.25;;;;;;;18.77;24.18;102829.41;5035013;28;20433;-58
2022/03/24 11:00:41;;;;;;;31.60;21.63;;;;;;;18.92;25.09;102828.28;5038857;28;20116;-58
2022/03/24 11:03:07;;;;;;;27.17;19.55;;;;;;;18.78;23.66;102828.53;5038548;28;20041;-58
2022/03/24 11:05:33;;;;;;;24.15;16.20;;;;;;;18.70;23.69;102833.94;5038640;28;20460;-58
2022/03/24 11:07:58;;;;;;;20.08;14.63;;;;;;;18.63;24.44;102837.59;5038617;28;20069;-58
2022/03/24 11:10:23;;;;;;;25.85;19.67;;;;;;;18.59;24.75;102835.00;5038223;28;20378;-58
2022/03/24 11:12:52;;;;;;;30.42;21.45;;;;;;;18.70;24.99;102838.38;5038596;28;20117;-58